Time;durP1;ratioP1;P1;durP2;ratioP2;P2;SDS_P1;SDS_P2;PMS_P1;PMS_P2;Temp;Humidity;BMP_temperature;BMP_pressure;BME280_temperature;BME280_humidity;BME280_pressure;Samples;Min_cycle;Max_cycle;Signal;HPM_P1;HPM_P2
2023/09/28 00:01:13;;;;;;;22.30;14.30;;;;;;;;;;109525;1250;59122;-80
2023/09/28 00:03:40;;;;;;;21.80;14.40;;;;;;;;;;109477;1250;59593;-80
2023/09/28 00:06:06;;;;;;;21.00;15.10;;;;;;;;;;109355;1251;59514;-80
2023/09/28 00:08:32;;;;;;;18.40;14.70;;;;;;;;;;109470;1250;59018;-80
2023/09/28 00:10:59;;;;;;;20.10;14.30;;;;;;;;;;109396;1251;59595;-79
2023/09/28 00:13:25;;;;;;;23.60;14.70;;;;;;;;;;109427;1250;59316;-80
2023/09/28 00:15:52;;;;;;;22.80;14.80;;;;;;;;;;109513;1250;59318;-79
2023/09/28 00:18:18;;;;;;;21.90;14.30;;;;;;;;;;109513;1250;59670;-80
2023/09/28 00:20:45;;;;;;;20.10;14.60;;;;;;;;;;109499;1250;59566;-80
2023/09/28 00:23:12;;;;;;;23.40;14.10;;;;;;;;;;109383;1251;59553;-80
2023/09/28 00:25:38;;;;;;;21.40;14.70;;;;;;;;;;109402;1250;59543;-80
2023/09/28 00:28:06;;;;;;;17.40;14.00;;;;;;;;;;109392;1251;59769;-80
2023/09/28 00:30:32;;;;;;;21.10;14.60;;;;;;;;;;109412;1250;60515;-80
2023/09/28 00:32:58;;;;;;;19.00;13.10;;;;;;;;;;109243;1251;59377;-80
2023/09/28 00:35:28;;;;;;;21.30;14.00;;;;;;;;;;109365;1251;59531;-80
2023/09/28 00:37:54;;;;;;;23.40;15.10;;;;;;;;;;109413;1250;59123;-80
2023/09/28 00:42:48;;;;;;;20.60;13.70;;;;;;;;;;109355;1250;59617;-80
2023/09/28 00:45:14;;;;;;;19.10;12.70;;;;;;;;;;109458;1249;59968;-80
2023/09/28 00:47:41;;;;;;;17.90;13.30;;;;;;;;;;109342;1251;59186;-80
2023/09/28 00:50:09;;;;;;;17.30;13.20;;;;;;;;;;109353;1251;59105;-80
2023/09/28 00:52:37;;;;;;;17.30;12.50;;;;;;;;;;109454;1249;59045;-80
2023/09/28 00:55:04;;;;;;;18.60;13.70;;;;;;;;;;109372;1250;62556;-80
2023/09/28 00:57:33;;;;;;;15.90;11.70;;;;;;;;;;109473;1249;59139;-80
2023/09/28 01:00:07;;;;;;;22.70;13.90;;;;;;;;;;109434;1249;60996;-80
2023/09/28 01:02:33;;;;;;;22.20;13.50;;;;;;;;;;109332;1252;59678;-79
2023/09/28 01:05:04;;;;;;;19.80;13.10;;;;;;;;;;109382;1251;59620;-80
2023/09/28 01:07:31;;;;;;;19.30;12.80;;;;;;;;;;109314;1251;60682;-80
2023/09/28 01:09:58;;;;;;;22.80;14.50;;;;;;;;;;109379;1250;59043;-80
2023/09/28 01:12:25;;;;;;;20.30;14.50;;;;;;;;;;109251;1250;208498;-80
2023/09/28 01:14:52;;;;;;;21.60;13.80;;;;;;;;;;109441;1250;59102;-79
2023/09/28 01:17:18;;;;;;;22.50;14.60;;;;;;;;;;109446;1249;59033;-80
2023/09/28 01:19:45;;;;;;;17.60;13.20;;;;;;;;;;109455;1249;59205;-80
2023/09/28 01:22:15;;;;;;;17.90;13.40;;;;;;;;;;109445;1249;59036;-80
2023/09/28 01:24:44;;;;;;;18.40;12.10;;;;;;;;;;109386;1251;59957;-79
2023/09/28 01:27:10;;;;;;;18.20;13.00;;;;;;;;;;109348;1251;59642;-80
2023/09/28 01:29:37;;;;;;;17.60;11.90;;;;;;;;;;109388;1251;59045;-80
2023/09/28 01:32:03;;;;;;;21.00;14.10;;;;;;;;;;109382;1251;59394;-80
2023/09/28 01:34:30;;;;;;;21.00;13.90;;;;;;;;;;109361;1250;59698;-80
2023/09/28 01:36:56;;;;;;;19.00;13.70;;;;;;;;;;109310;1251;59224;-80
2023/09/28 01:39:23;;;;;;;21.40;13.00;;;;;;;;;;109367;1251;59110;-80
2023/09/28 01:41:49;;;;;;;20.80;12.90;;;;;;;;;;109362;1250;59641;-80
2023/09/28 01:44:16;;;;;;;20.30;12.50;;;;;;;;;;109486;1249;61833;-80
2023/09/28 01:46:42;;;;;;;15.60;12.10;;;;;;;;;;109400;1251;59369;-80
2023/09/28 01:49:09;;;;;;;19.10;12.90;;;;;;;;;;109357;1250;58973;-80
2023/09/28 01:51:35;;;;;;;19.20;12.20;;;;;;;;;;109382;1251;59621;-80
2023/09/28 01:54:01;;;;;;;20.70;12.90;;;;;;;;;;109415;1250;59577;-80
2023/09/28 01:56:28;;;;;;;19.30;13.60;;;;;;;;;;109481;1249;59568;-80
2023/09/28 01:58:54;;;;;;;20.60;12.60;;;;;;;;;;109459;1249;59349;-80
2023/09/28 02:01:22;;;;;;;15.50;12.10;;;;;;;;;;109352;1250;59476;-80
2023/09/28 02:03:50;;;;;;;24.00;13.30;;;;;;;;;;109442;1249;59189;-80
2023/09/28 02:06:17;;;;;;;21.40;13.80;;;;;;;;;;109361;1251;59183;-80
2023/09/28 02:08:43;;;;;;;24.40;12.60;;;;;;;;;;109399;1250;59842;-80
2023/09/28 02:11:10;;;;;;;19.90;11.80;;;;;;;;;;109392;1250;59148;-80
2023/09/28 02:13:36;;;;;;;18.40;13.60;;;;;;;;;;109455;1249;59061;-80
2023/09/28 02:16:03;;;;;;;16.30;11.80;;;;;;;;;;109447;1249;59647;-80
2023/09/28 02:18:29;;;;;;;20.50;11.40;;;;;;;;;;109466;1250;59097;-80
2023/09/28 02:20:55;;;;;;;18.60;12.70;;;;;;;;;;109491;1249;59533;-80
2023/09/28 02:23:22;;;;;;;47.00;12.90;;;;;;;;;;109262;1251;59460;-79
2023/09/28 02:25:48;;;;;;;20.20;11.50;;;;;;;;;;109368;1250;59005;-80
2023/09/28 02:28:15;;;;;;;17.40;12.40;;;;;;;;;;109466;1249;59546;-79
2023/09/28 02:30:41;;;;;;;16.00;11.80;;;;;;;;;;109453;1249;59603;-80
2023/09/28 02:33:07;;;;;;;17.00;12.60;;;;;;;;;;109383;1249;58979;-80
2023/09/28 02:35:35;;;;;;;19.30;12.00;;;;;;;;;;109359;1251;59676;-80
2023/09/28 02:38:02;;;;;;;18.70;11.20;;;;;;;;;;109394;1251;60158;-80
2023/09/28 02:40:29;;;;;;;17.60;12.70;;;;;;;;;;109426;1251;59030;-80
2023/09/28 02:42:57;;;;;;;16.90;11.90;;;;;;;;;;109445;1249;59135;-80
2023/09/28 02:45:24;;;;;;;22.10;12.40;;;;;;;;;;109413;1249;61225;-80
2023/09/28 02:47:50;;;;;;;19.20;12.30;;;;;;;;;;109336;1250;59081;-80
2023/09/28 02:50:18;;;;;;;17.50;12.20;;;;;;;;;;109360;1251;59798;-80
2023/09/28 02:52:47;;;;;;;19.70;12.40;;;;;;;;;;109358;1249;59758;-80
2023/09/28 02:55:14;;;;;;;17.40;11.30;;;;;;;;;;109527;1249;59256;-80
2023/09/28 02:57:40;;;;;;;14.10;10.90;;;;;;;;;;109470;1249;60651;-80
2023/09/28 03:02:52;;;;;;;16.50;11.80;;;;;;;;;;109471;1249;59914;-80
2023/09/28 03:05:21;;;;;;;16.20;11.80;;;;;;;;;;109373;1249;59262;-80
2023/09/28 03:07:48;;;;;;;15.00;10.30;;;;;;;;;;109381;1250;58938;-80
2023/09/28 03:10:14;;;;;;;14.20;10.50;;;;;;;;;;109436;1250;61580;-80
2023/09/28 03:12:42;;;;;;;15.10;10.90;;;;;;;;;;109405;1250;59161;-80
2023/09/28 03:15:11;;;;;;;14.90;9.60;;;;;;;;;;109440;1249;59680;-80
2023/09/28 03:17:38;;;;;;;18.90;11.90;;;;;;;;;;109454;1249;59692;-80
2023/09/28 03:20:15;;;;;;;13.20;9.30;;;;;;;;;;109488;1249;58993;-80
2023/09/28 03:22:42;;;;;;;15.50;10.60;;;;;;;;;;109404;1249;61539;-80
2023/09/28 03:25:11;;;;;;;13.00;9.00;;;;;;;;;;109391;1251;59686;-80
2023/09/28 03:27:39;;;;;;;12.60;9.70;;;;;;;;;;109381;1250;60875;-79
2023/09/28 03:30:10;;;;;;;11.60;9.10;;;;;;;;;;109388;1251;59605;-79
2023/09/28 03:32:39;;;;;;;17.50;9.70;;;;;;;;;;109360;1251;59097;-79
2023/09/28 03:35:07;;;;;;;14.70;10.30;;;;;;;;;;109380;1251;61988;-79
2023/09/28 03:37:34;;;;;;;17.00;11.40;;;;;;;;;;109399;1251;59660;-79
2023/09/28 03:40:00;;;;;;;13.10;10.30;;;;;;;;;;109345;1251;59586;-80
2023/09/28 03:42:27;;;;;;;17.30;10.00;;;;;;;;;;109401;1250;59766;-80
2023/09/28 03:44:54;;;;;;;14.60;9.90;;;;;;;;;;109470;1249;59847;-79
2023/09/28 03:47:20;;;;;;;13.70;10.70;;;;;;;;;;109392;1249;62541;-80
2023/09/28 03:49:47;;;;;;;14.20;9.70;;;;;;;;;;109404;1251;59658;-80
2023/09/28 03:52:14;;;;;;;15.50;10.70;;;;;;;;;;109415;1250;59698;-79
2023/09/28 03:54:40;;;;;;;13.70;10.00;;;;;;;;;;109459;1250;59021;-80
2023/09/28 03:57:07;;;;;;;15.00;10.50;;;;;;;;;;109491;1249;59365;-79
2023/09/28 03:59:33;;;;;;;19.80;10.50;;;;;;;;;;109456;1249;62557;-79
2023/09/28 04:02:01;;;;;;;18.50;10.20;;;;;;;;;;109452;1249;58993;-80
2023/09/28 04:04:27;;;;;;;14.00;10.80;;;;;;;;;;109288;1251;59916;-80
2023/09/28 04:06:54;;;;;;;14.60;10.80;;;;;;;;;;109320;1252;59086;-79
2023/09/28 04:09:20;;;;;;;16.30;10.60;;;;;;;;;;109360;1251;59000;-80
2023/09/28 04:11:46;;;;;;;14.00;10.60;;;;;;;;;;109362;1251;59064;-80
2023/09/28 04:14:13;;;;;;;13.90;10.50;;;;;;;;;;109351;1251;58986;-80
2023/09/28 04:16:39;;;;;;;13.40;10.40;;;;;;;;;;109342;1251;59446;-79
2023/09/28 04:19:06;;;;;;;14.60;10.40;;;;;;;;;;109363;1251;59270;-80
2023/09/28 04:21:32;;;;;;;14.50;9.50;;;;;;;;;;109483;1250;59781;-80
2023/09/28 04:23:58;;;;;;;15.70;10.80;;;;;;;;;;109194;1251;59023;-80
2023/09/28 04:26:25;;;;;;;16.30;10.60;;;;;;;;;;109346;1250;59116;-79
2023/09/28 04:28:51;;;;;;;16.40;9.10;;;;;;;;;;109283;1251;59676;-79
2023/09/28 04:31:18;;;;;;;19.30;10.40;;;;;;;;;;109201;1251;59586;-80
2023/09/28 04:33:45;;;;;;;15.10;11.00;;;;;;;;;;109343;1251;59443;-79
2023/09/28 04:36:12;;;;;;;16.00;10.20;;;;;;;;;;109207;1251;59803;-80
2023/09/28 04:38:38;;;;;;;22.80;10.80;;;;;;;;;;109419;1250;59712;-80
2023/09/28 04:41:05;;;;;;;17.80;10.10;;;;;;;;;;109307;1251;59003;-79
2023/09/28 04:43:31;;;;;;;14.90;10.40;;;;;;;;;;109359;1250;59766;-79
2023/09/28 04:45:57;;;;;;;15.50;10.20;;;;;;;;;;109431;1251;59218;-80
2023/09/28 04:48:24;;;;;;;20.50;10.10;;;;;;;;;;109400;1251;59590;-80
2023/09/28 04:50:50;;;;;;;16.20;12.40;;;;;;;;;;109349;1251;59725;-80
2023/09/28 04:53:16;;;;;;;14.00;10.10;;;;;;;;;;109444;1250;59486;-80
2023/09/28 04:55:43;;;;;;;15.00;10.20;;;;;;;;;;109401;1250;59704;-80
2023/09/28 04:58:10;;;;;;;18.20;11.20;;;;;;;;;;109382;1249;59759;-79
2023/09/28 05:00:37;;;;;;;21.50;9.00;;;;;;;;;;109310;1250;59396;-80
2023/09/28 05:03:04;;;;;;;12.90;8.90;;;;;;;;;;109311;1251;59949;-80
2023/09/28 05:05:32;;;;;;;20.60;11.00;;;;;;;;;;109257;1251;61227;-80
2023/09/28 05:07:59;;;;;;;15.10;10.70;;;;;;;;;;109338;1249;59755;-79
2023/09/28 05:10:26;;;;;;;21.20;13.50;;;;;;;;;;109300;1251;59360;-80
2023/09/28 05:12:52;;;;;;;17.90;10.80;;;;;;;;;;109325;1250;61571;-80
2023/09/28 05:15:19;;;;;;;18.10;10.70;;;;;;;;;;109410;1250;59139;-80
2023/09/28 05:17:47;;;;;;;21.30;10.90;;;;;;;;;;109320;1251;59369;-80
2023/09/28 05:20:13;;;;;;;17.00;11.30;;;;;;;;;;109383;1251;59210;-80
2023/09/28 05:22:40;;;;;;;12.90;10.60;;;;;;;;;;109407;1250;59656;-80
2023/09/28 05:25:07;;;;;;;18.70;9.80;;;;;;;;;;109344;1251;62698;-80
2023/09/28 05:27:33;;;;;;;15.90;10.60;;;;;;;;;;109349;1251;59186;-80
2023/09/28 05:29:59;;;;;;;16.00;10.50;;;;;;;;;;109441;1250;59139;-80
2023/09/28 05:32:26;;;;;;;19.70;12.30;;;;;;;;;;109310;1250;59082;-80
2023/09/28 05:34:52;;;;;;;21.10;11.60;;;;;;;;;;109304;1254;59668;-80
2023/09/28 05:37:18;;;;;;;16.20;11.70;;;;;;;;;;109359;1251;59738;-79
2023/09/28 05:39:45;;;;;;;26.50;12.40;;;;;;;;;;109350;1251;59802;-79
2023/09/28 05:42:11;;;;;;;17.50;11.60;;;;;;;;;;109352;1251;60216;-80
2023/09/28 05:44:38;;;;;;;16.00;10.70;;;;;;;;;;109288;1251;59146;-80
2023/09/28 05:47:04;;;;;;;23.60;13.60;;;;;;;;;;109335;1251;59658;-79
2023/09/28 05:49:31;;;;;;;17.90;12.60;;;;;;;;;;109294;1251;59701;-80
2023/09/28 05:51:58;;;;;;;25.80;13.60;;;;;;;;;;109281;1252;59319;-80
2023/09/28 05:54:26;;;;;;;18.70;11.80;;;;;;;;;;109133;1251;59555;-79
2023/09/28 05:56:52;;;;;;;19.10;12.50;;;;;;;;;;109347;1251;58994;-80
2023/09/28 05:59:19;;;;;;;25.00;12.40;;;;;;;;;;109392;1251;59221;-80
2023/09/28 06:01:45;;;;;;;29.40;12.90;;;;;;;;;;109370;1251;59094;-80
2023/09/28 06:04:12;;;;;;;18.50;12.00;;;;;;;;;;109348;1250;59469;-80
2023/09/28 06:06:38;;;;;;;20.20;11.90;;;;;;;;;;109401;1252;59422;-80
2023/09/28 06:09:05;;;;;;;21.90;12.20;;;;;;;;;;109336;1251;59319;-80
2023/09/28 06:11:31;;;;;;;22.90;11.50;;;;;;;;;;109350;1253;59051;-80
2023/09/28 06:13:58;;;;;;;20.00;11.90;;;;;;;;;;109399;1251;59590;-80
2023/09/28 06:16:25;;;;;;;22.40;11.70;;;;;;;;;;109300;1251;59420;-80
2023/09/28 06:18:52;;;;;;;15.30;12.10;;;;;;;;;;109322;1250;59362;-80
2023/09/28 06:21:18;;;;;;;18.10;12.60;;;;;;;;;;109332;1252;59804;-79
2023/09/28 06:23:45;;;;;;;21.80;12.20;;;;;;;;;;109339;1251;59109;-80
2023/09/28 06:26:11;;;;;;;15.70;11.90;;;;;;;;;;109452;1250;59400;-80
2023/09/28 06:28:38;;;;;;;22.60;12.60;;;;;;;;;;109354;1251;59681;-80
2023/09/28 06:31:04;;;;;;;15.40;12.20;;;;;;;;;;109292;1251;59898;-80
2023/09/28 06:33:31;;;;;;;17.30;12.20;;;;;;;;;;109236;1251;59778;-79
2023/09/28 06:35:57;;;;;;;17.10;11.90;;;;;;;;;;109374;1253;59182;-80
2023/09/28 06:38:24;;;;;;;21.10;12.90;;;;;;;;;;109393;1249;59105;-80
2023/09/28 06:40:50;;;;;;;22.10;12.60;;;;;;;;;;109401;1250;59325;-80
2023/09/28 06:43:17;;;;;;;19.30;12.90;;;;;;;;;;109290;1250;59103;-80
2023/09/28 06:45:43;;;;;;;17.30;12.90;;;;;;;;;;109202;1253;59228;-80
2023/09/28 06:48:09;;;;;;;22.60;12.70;;;;;;;;;;109305;1251;59177;-80
2023/09/28 06:50:36;;;;;;;18.30;12.40;;;;;;;;;;109286;1251;59403;-80
2023/09/28 06:53:02;;;;;;;16.30;11.30;;;;;;;;;;109379;1251;59360;-80
2023/09/28 06:55:29;;;;;;;16.70;12.30;;;;;;;;;;109342;1251;59713;-80
2023/09/28 06:57:56;;;;;;;14.40;11.20;;;;;;;;;;109330;1251;59596;-80
2023/09/28 07:00:22;;;;;;;21.20;12.80;;;;;;;;;;109339;1251;59654;-80
2023/09/28 07:02:49;;;;;;;40.80;23.40;;;;;;;;;;109329;1254;59689;-80
2023/09/28 07:05:16;;;;;;;25.30;14.50;;;;;;;;;;109455;1251;59019;-81
2023/09/28 07:07:43;;;;;;;20.20;11.60;;;;;;;;;;109522;1249;59499;-81
2023/09/28 07:10:10;;;;;;;12.60;8.60;;;;;;;;;;109479;1251;59145;-81
2023/09/28 07:12:36;;;;;;;16.20;8.00;;;;;;;;;;109499;1251;59288;-81
2023/09/28 07:15:04;;;;;;;13.10;8.50;;;;;;;;;;109483;1251;58806;-81
2023/09/28 07:17:31;;;;;;;14.40;8.50;;;;;;;;;;109495;1253;58925;-81
2023/09/28 07:19:58;;;;;;;13.40;7.40;;;;;;;;;;109336;1251;59076;-81
2023/09/28 07:22:24;;;;;;;16.10;7.50;;;;;;;;;;109358;1251;60784;-81
2023/09/28 07:24:50;;;;;;;11.30;7.80;;;;;;;;;;109349;1251;59052;-81
2023/09/28 07:27:17;;;;;;;12.30;7.00;;;;;;;;;;109344;1251;59399;-81
2023/09/28 07:29:43;;;;;;;12.20;8.10;;;;;;;;;;109376;1251;59408;-81
2023/09/28 07:32:10;;;;;;;11.20;7.50;;;;;;;;;;109324;1251;59365;-81
2023/09/28 07:34:37;;;;;;;12.30;7.10;;;;;;;;;;109350;1251;59664;-81
2023/09/28 07:37:03;;;;;;;11.70;7.20;;;;;;;;;;109408;1251;59097;-82
2023/09/28 07:39:30;;;;;;;11.80;6.50;;;;;;;;;;109322;1251;59549;-82
2023/09/28 07:41:56;;;;;;;14.50;7.10;;;;;;;;;;109386;1251;59022;-81
2023/09/28 07:44:23;;;;;;;9.00;6.60;;;;;;;;;;109346;1251;58978;-81
2023/09/28 07:46:49;;;;;;;11.20;6.10;;;;;;;;;;109392;1252;59047;-81
2023/09/28 07:49:16;;;;;;;21.50;10.20;;;;;;;;;;109380;1251;59065;-82
2023/09/28 07:51:42;;;;;;;12.90;7.70;;;;;;;;;;109385;1253;62577;-81
2023/09/28 07:54:09;;;;;;;11.00;6.70;;;;;;;;;;109426;1250;59633;-82
2023/09/28 07:56:36;;;;;;;8.50;6.10;;;;;;;;;;109395;1250;58957;-82
2023/09/28 07:59:02;;;;;;;11.10;6.60;;;;;;;;;;109444;1250;59091;-82
2023/09/28 08:01:29;;;;;;;10.30;6.50;;;;;;;;;;109373;1251;59358;-83
2023/09/28 08:03:55;;;;;;;10.20;7.20;;;;;;;;;;109511;1250;59089;-82
2023/09/28 08:06:22;;;;;;;11.50;6.80;;;;;;;;;;109383;1250;59111;-82
2023/09/28 08:08:49;;;;;;;10.90;5.90;;;;;;;;;;109412;1251;59666;-82
2023/09/28 08:11:15;;;;;;;10.90;6.80;;;;;;;;;;109316;1253;59611;-82
2023/09/28 08:13:43;;;;;;;12.10;7.70;;;;;;;;;;109387;1250;59787;-82
2023/09/28 08:16:09;;;;;;;8.10;5.40;;;;;;;;;;109388;1251;61699;-82
2023/09/28 08:18:36;;;;;;;8.30;5.60;;;;;;;;;;109375;1250;59022;-82
2023/09/28 08:21:03;;;;;;;21.20;6.10;;;;;;;;;;109355;1252;59594;-82
2023/09/28 08:23:31;;;;;;;8.40;5.20;;;;;;;;;;109268;1253;59733;-82
2023/09/28 08:25:58;;;;;;;6.50;5.50;;;;;;;;;;109417;1250;59085;-82
2023/09/28 08:28:24;;;;;;;13.30;6.80;;;;;;;;;;109375;1250;59629;-83
2023/09/28 08:30:53;;;;;;;10.00;6.40;;;;;;;;;;109341;1253;59629;-83
2023/09/28 08:33:20;;;;;;;12.10;5.90;;;;;;;;;;109226;1251;59204;-83
2023/09/28 08:35:47;;;;;;;9.70;5.50;;;;;;;;;;109313;1251;60509;-83
2023/09/28 08:38:15;;;;;;;8.50;5.40;;;;;;;;;;109430;1250;59701;-83
2023/09/28 08:40:42;;;;;;;9.20;6.20;;;;;;;;;;109370;1250;61989;-83
2023/09/28 08:43:10;;;;;;;8.40;5.50;;;;;;;;;;109388;1251;59043;-83
2023/09/28 08:45:38;;;;;;;10.50;6.10;;;;;;;;;;109294;1251;59729;-84
2023/09/28 08:48:06;;;;;;;9.30;5.30;;;;;;;;;;109372;1251;60045;-83
2023/09/28 08:50:37;;;;;;;12.10;5.90;;;;;;;;;;109379;1251;59698;-83
2023/09/28 08:53:06;;;;;;;8.80;4.70;;;;;;;;;;109247;1251;62182;-83
2023/09/28 08:55:33;;;;;;;8.70;5.20;;;;;;;;;;109424;1250;59155;-82
2023/09/28 08:57:59;;;;;;;12.90;6.00;;;;;;;;;;109326;1251;59690;-82
2023/09/28 09:00:26;;;;;;;9.30;5.30;;;;;;;;;;109299;1253;59655;-82
2023/09/28 09:02:53;;;;;;;12.70;5.30;;;;;;;;;;109341;1251;59732;-82
2023/09/28 09:05:20;;;;;;;9.90;5.30;;;;;;;;;;109372;1250;58995;-83
2023/09/28 09:07:47;;;;;;;6.80;5.10;;;;;;;;;;109390;1250;59737;-81
2023/09/28 09:10:17;;;;;;;9.20;5.20;;;;;;;;;;109266;1251;59678;-82
2023/09/28 09:12:43;;;;;;;9.60;5.60;;;;;;;;;;109376;1250;59370;-82
2023/09/28 09:15:10;;;;;;;10.30;5.90;;;;;;;;;;109354;1253;58982;-81
2023/09/28 09:17:37;;;;;;;14.10;6.10;;;;;;;;;;109397;1249;62983;-81
2023/09/28 09:20:08;;;;;;;14.10;6.30;;;;;;;;;;109334;1252;59109;-81
2023/09/28 09:22:35;;;;;;;11.80;5.90;;;;;;;;;;109310;1252;59775;-82
2023/09/28 09:25:02;;;;;;;10.50;6.20;;;;;;;;;;109367;1251;59701;-81
2023/09/28 09:27:32;;;;;;;10.30;5.10;;;;;;;;;;109353;1253;59591;-81
2023/09/28 09:30:02;;;;;;;9.00;6.50;;;;;;;;;;109321;1250;61576;-81
2023/09/28 09:32:29;;;;;;;8.60;5.50;;;;;;;;;;109341;1251;59069;-81
2023/09/28 09:34:55;;;;;;;11.80;6.00;;;;;;;;;;109345;1250;59650;-82
2023/09/28 09:37:22;;;;;;;13.20;6.20;;;;;;;;;;109365;1250;59624;-81
2023/09/28 09:39:49;;;;;;;12.10;5.80;;;;;;;;;;109284;1251;59147;-82
2023/09/28 09:42:25;;;;;;;9.90;6.20;;;;;;;;;;109350;1250;62957;-81
2023/09/28 09:44:52;;;;;;;12.30;6.30;;;;;;;;;;109407;1251;59086;-82
2023/09/28 09:47:19;;;;;;;9.80;5.30;;;;;;;;;;109432;1251;58987;-81
2023/09/28 09:49:46;;;;;;;10.80;5.80;;;;;;;;;;109391;1251;59711;-81
2023/09/28 09:52:12;;;;;;;13.30;6.50;;;;;;;;;;109377;1251;59722;-81
2023/09/28 09:54:39;;;;;;;7.00;4.40;;;;;;;;;;109423;1252;60637;-81
2023/09/28 09:57:06;;;;;;;10.30;4.20;;;;;;;;;;109270;1252;59331;-81
2023/09/28 09:59:32;;;;;;;12.00;5.00;;;;;;;;;;109325;1251;60947;-81
2023/09/28 10:01:59;;;;;;;10.00;4.80;;;;;;;;;;109386;1250;59109;-82
2023/09/28 10:04:26;;;;;;;9.00;5.30;;;;;;;;;;109288;1253;59314;-81
2023/09/28 10:06:56;;;;;;;9.70;4.30;;;;;;;;;;109267;1253;62084;-82
2023/09/28 10:09:22;;;;;;;9.80;4.20;;;;;;;;;;109386;1251;59723;-81
2023/09/28 10:11:49;;;;;;;12.30;3.80;;;;;;;;;;109394;1253;59047;-81
2023/09/28 10:14:18;;;;;;;8.60;4.30;;;;;;;;;;109443;1249;59204;-81
2023/09/28 10:16:48;;;;;;;10.60;4.20;;;;;;;;;;109464;1251;59164;-81
2023/09/28 10:19:17;;;;;;;6.00;3.60;;;;;;;;;;109399;1251;60568;-81
2023/09/28 10:21:43;;;;;;;7.10;4.30;;;;;;;;;;109444;1251;59275;-81
2023/09/28 10:24:10;;;;;;;6.20;3.70;;;;;;;;;;109387;1250;59093;-81
2023/09/28 10:26:38;;;;;;;8.10;3.90;;;;;;;;;;109381;1251;59728;-82
2023/09/28 10:29:06;;;;;;;8.80;4.00;;;;;;;;;;109453;1250;58976;-82
2023/09/28 10:31:34;;;;;;;13.40;4.40;;;;;;;;;;109427;1250;61446;-81
2023/09/28 10:34:01;;;;;;;10.10;4.10;;;;;;;;;;109418;1254;59522;-82
2023/09/28 10:36:27;;;;;;;11.70;3.60;;;;;;;;;;109385;1253;60455;-81
2023/09/28 10:39:16;;;;;;;7.60;4.50;;;;;;;;;;109205;1252;59007;-81
2023/09/28 10:41:43;;;;;;;;;;;;;;;;;;109350;1251;59032;-81
2023/09/28 10:44:13;;;;;;;8.00;4.20;;;;;;;;;;109363;1253;60557;-82
2023/09/28 10:46:40;;;;;;;8.60;4.00;;;;;;;;;;109356;1255;59355;-81
2023/09/28 10:49:06;;;;;;;5.60;3.90;;;;;;;;;;109243;1253;59059;-82
2023/09/28 10:51:33;;;;;;;9.00;4.50;;;;;;;;;;109363;1250;59094;-81
2023/09/28 10:54:02;;;;;;;6.80;4.60;;;;;;;;;;109409;1251;59822;-82
2023/09/28 10:56:28;;;;;;;10.90;4.70;;;;;;;;;;109379;1253;62570;-82
2023/09/28 10:58:55;;;;;;;13.20;4.20;;;;;;;;;;109430;1251;59553;-82
2023/09/28 11:01:21;;;;;;;7.70;4.30;;;;;;;;;;109286;1251;59374;-82
2023/09/28 11:03:50;;;;;;;12.40;3.80;;;;;;;;;;109331;1251;59727;-82
2023/09/28 11:06:17;;;;;;;;;;;;;;;;;;109402;1251;59260;-81
2023/09/28 11:08:45;;;;;;;10.50;3.60;;;;;;;;;;109380;1252;62726;-82
2023/09/28 11:11:12;;;;;;;14.90;6.90;;;;;;;;;;109298;1253;59620;-81
2023/09/28 11:13:39;;;;;;;10.20;4.70;;;;;;;;;;109369;1250;59526;-81
2023/09/28 11:16:05;;;;;;;11.30;4.20;;;;;;;;;;109377;1252;59268;-82
2023/09/28 11:18:32;;;;;;;8.90;4.40;;;;;;;;;;109274;1257;59062;-81
2023/09/28 11:20:59;;;;;;;7.50;4.00;;;;;;;;;;109258;1251;63014;-81
2023/09/28 11:23:25;;;;;;;8.50;4.20;;;;;;;;;;109362;1253;59803;-82
2023/09/28 11:25:52;;;;;;;9.80;4.30;;;;;;;;;;109377;1251;59539;-81
2023/09/28 11:28:18;;;;;;;6.40;3.90;;;;;;;;;;109325;1251;59742;-82
2023/09/28 11:30:44;;;;;;;11.60;4.20;;;;;;;;;;109265;1252;59449;-81
2023/09/28 11:33:11;;;;;;;9.70;4.20;;;;;;;;;;109407;1251;58990;-82
2023/09/28 11:35:38;;;;;;;12.60;4.30;;;;;;;;;;109392;1250;59073;-81
2023/09/28 11:38:11;;;;;;;16.40;5.50;;;;;;;;;;109391;1251;59633;-81
2023/09/28 11:40:38;;;;;;;7.00;4.40;;;;;;;;;;109317;1252;59764;-82
2023/09/28 11:43:05;;;;;;;9.50;5.10;;;;;;;;;;109375;1252;59101;-81
2023/09/28 11:45:33;;;;;;;8.80;5.00;;;;;;;;;;109410;1253;61449;-82
2023/09/28 11:48:05;;;;;;;6.60;4.40;;;;;;;;;;109414;1251;59676;-82
2023/09/28 11:50:32;;;;;;;6.50;3.70;;;;;;;;;;109354;1250;60749;-81
2023/09/28 11:52:58;;;;;;;8.00;4.40;;;;;;;;;;109404;1250;59684;-81
2023/09/28 11:55:25;;;;;;;6.70;4.40;;;;;;;;;;109419;1251;59548;-82
2023/09/28 11:57:54;;;;;;;10.20;4.10;;;;;;;;;;109424;1253;62647;-81
2023/09/28 12:00:21;;;;;;;6.70;4.30;;;;;;;;;;109437;1251;59142;-81
2023/09/28 12:02:48;;;;;;;7.70;4.50;;;;;;;;;;109382;1251;60382;-81
2023/09/28 12:05:16;;;;;;;7.00;4.30;;;;;;;;;;109402;1251;59637;-81
2023/09/28 12:07:42;;;;;;;10.00;5.10;;;;;;;;;;109398;1252;59040;-81
2023/09/28 12:10:11;;;;;;;6.80;4.10;;;;;;;;;;109315;1250;58949;-81
2023/09/28 12:12:38;;;;;;;9.40;4.60;;;;;;;;;;109427;1253;59052;-82
2023/09/28 12:15:10;;;;;;;8.90;4.10;;;;;;;;;;109435;1251;59636;-82
2023/09/28 12:17:38;;;;;;;8.70;4.60;;;;;;;;;;109386;1251;59315;-82
2023/09/28 12:20:04;;;;;;;8.20;4.30;;;;;;;;;;109398;1251;59659;-81
2023/09/28 12:22:31;;;;;;;7.70;3.80;;;;;;;;;;109395;1254;63187;-81
2023/09/28 12:24:58;;;;;;;13.10;5.10;;;;;;;;;;109472;1254;59343;-82
2023/09/28 12:27:25;;;;;;;10.60;4.80;;;;;;;;;;109299;1250;60736;-81
2023/09/28 12:29:51;;;;;;;9.10;4.80;;;;;;;;;;109347;1252;59138;-81
2023/09/28 12:32:18;;;;;;;12.40;5.40;;;;;;;;;;109444;1251;59650;-81
2023/09/28 12:34:44;;;;;;;5.80;4.00;;;;;;;;;;109399;1251;60082;-81
2023/09/28 12:37:11;;;;;;;12.80;4.30;;;;;;;;;;109438;1251;59618;-81
2023/09/28 12:39:38;;;;;;;11.10;4.40;;;;;;;;;;109351;1251;60571;-81
2023/09/28 12:42:04;;;;;;;11.40;5.60;;;;;;;;;;109321;1255;59235;-81
2023/09/28 12:44:30;;;;;;;12.70;5.00;;;;;;;;;;109348;1251;59598;-81
2023/09/28 12:46:57;;;;;;;7.90;4.30;;;;;;;;;;109421;1251;58990;-81
2023/09/28 12:49:23;;;;;;;12.20;4.70;;;;;;;;;;109407;1251;59791;-81
2023/09/28 12:51:50;;;;;;;8.20;3.80;;;;;;;;;;109396;1250;58949;-82
2023/09/28 12:54:19;;;;;;;7.20;4.30;;;;;;;;;;109365;1251;59431;-81
2023/09/28 12:56:45;;;;;;;8.90;4.60;;;;;;;;;;109386;1251;59604;-81
2023/09/28 12:59:13;;;;;;;7.70;4.00;;;;;;;;;;109434;1250;59029;-82
2023/09/28 13:01:39;;;;;;;9.20;4.70;;;;;;;;;;109370;1251;60250;-82
2023/09/28 13:04:06;;;;;;;9.10;3.90;;;;;;;;;;109444;1251;58997;-81
2023/09/28 13:06:33;;;;;;;6.80;4.10;;;;;;;;;;109441;1253;59151;-81
2023/09/28 13:09:00;;;;;;;9.10;4.40;;;;;;;;;;109394;1250;59347;-82
2023/09/28 13:11:27;;;;;;;10.20;4.30;;;;;;;;;;109312;1251;192808;-81
2023/09/28 13:13:54;;;;;;;11.90;4.20;;;;;;;;;;109441;1254;59093;-82
2023/09/28 13:16:22;;;;;;;9.00;4.40;;;;;;;;;;109338;1254;59674;-81
2023/09/28 13:18:49;;;;;;;8.10;3.70;;;;;;;;;;109325;1251;59675;-81
2023/09/28 13:21:15;;;;;;;7.70;4.00;;;;;;;;;;109398;1251;58986;-82
2023/09/28 13:23:42;;;;;;;7.80;4.70;;;;;;;;;;109337;1251;59590;-81
2023/09/28 13:26:09;;;;;;;6.30;4.60;;;;;;;;;;109465;1253;59459;-81
2023/09/28 13:28:35;;;;;;;16.00;4.70;;;;;;;;;;109386;1251;59596;-81
2023/09/28 13:31:07;;;;;;;7.40;4.20;;;;;;;;;;109298;1251;59651;-81
2023/09/28 13:33:36;;;;;;;7.80;4.10;;;;;;;;;;109338;1251;59278;-81
2023/09/28 13:36:05;;;;;;;8.00;4.20;;;;;;;;;;109331;1251;63213;-82
2023/09/28 13:38:32;;;;;;;12.70;3.80;;;;;;;;;;109375;1253;59204;-82
2023/09/28 13:40:59;;;;;;;6.30;3.60;;;;;;;;;;109358;1251;59446;-81
2023/09/28 13:43:26;;;;;;;9.20;4.50;;;;;;;;;;109345;1252;59796;-81
2023/09/28 13:45:52;;;;;;;9.90;4.00;;;;;;;;;;109359;1251;59109;-81
2023/09/28 13:48:19;;;;;;;7.10;4.20;;;;;;;;;;109396;1251;59018;-80
2023/09/28 13:50:45;;;;;;;12.00;4.10;;;;;;;;;;109422;1251;59776;-81
2023/09/28 13:53:12;;;;;;;11.60;4.40;;;;;;;;;;109345;1251;59088;-81
2023/09/28 13:55:38;;;;;;;8.00;3.90;;;;;;;;;;109387;1251;59383;-81
2023/09/28 13:58:04;;;;;;;8.80;4.30;;;;;;;;;;109399;1251;59661;-81
2023/09/28 14:00:38;;;;;;;17.20;4.90;;;;;;;;;;109425;1254;58963;-82
2023/09/28 14:03:04;;;;;;;9.80;4.90;;;;;;;;;;109470;1250;59601;-81
2023/09/28 14:05:32;;;;;;;6.50;4.20;;;;;;;;;;109383;1251;59052;-81
2023/09/28 14:07:59;;;;;;;6.90;4.40;;;;;;;;;;109392;1251;59040;-82
2023/09/28 14:10:26;;;;;;;16.00;5.20;;;;;;;;;;109437;1250;59935;-81
2023/09/28 14:12:52;;;;;;;17.50;5.50;;;;;;;;;;109364;1251;62607;-81
2023/09/28 14:15:19;;;;;;;11.20;4.50;;;;;;;;;;109383;1251;59300;-82
2023/09/28 14:17:47;;;;;;;13.20;5.70;;;;;;;;;;109317;1251;59416;-81
2023/09/28 14:20:15;;;;;;;12.20;5.60;;;;;;;;;;109328;1254;59195;-81